Time;durP1;ratioP1;P1;durP2;ratioP2;P2;SDS_P1;SDS_P2;PMS_P1;PMS_P2;Temp;Humidity;BMP_temperature;BMP_pressure;BME280_temperature;BME280_humidity;BME280_pressure;Samples;Min_cycle;Max_cycle;Signal;HPM_P1;HPM_P2
2021/04/11 00:01:48;;;;;;;1.17;0.65;;;;;9.10;100724.00;;;;5086753;28;20808;-74
2021/04/11 00:04:15;;;;;;;1.58;0.88;;;;;9.10;100715.00;;;;5088461;28;20191;-74
2021/04/11 00:06:43;;;;;;;2.33;0.70;;;;;9.10;100726.00;;;;5088057;28;20198;-74
2021/04/11 00:09:09;;;;;;;1.00;0.80;;;;;9.10;100721.00;;;;5088135;28;20201;-74
2021/04/11 00:11:36;;;;;;;1.23;0.82;;;;;9.00;100728.00;;;;5088263;28;20191;-74
2021/04/11 00:14:06;;;;;;;1.52;0.77;;;;;9.00;100712.00;;;;5088716;28;20202;-74
2021/04/11 00:16:32;;;;;;;0.60;0.50;;;;;9.00;100710.00;;;;5088329;28;20248;-74
2021/04/11 00:18:59;;;;;;;1.15;0.82;;;;;9.00;100707.00;;;;5088167;28;20202;-74
2021/04/11 00:21:26;;;;;;;0.95;0.65;;;;;9.00;100710.00;;;;5088056;28;20878;-74
2021/04/11 00:23:54;;;;;;;1.08;0.63;;;;;8.90;100711.00;;;;5088498;28;20193;-74
2021/04/11 00:26:21;;;;;;;1.30;0.75;;;;;8.90;100717.00;;;;5087788;28;20201;-74
2021/04/11 00:28:47;;;;;;;4.45;1.25;;;;;8.90;100703.00;;;;5084931;28;20205;-74
2021/04/11 00:31:14;;;;;;;1.00;0.85;;;;;8.90;100709.00;;;;5084694;28;20198;-74
2021/04/11 00:33:43;;;;;;;1.13;0.90;;;;;8.90;100699.00;;;;5088195;28;20251;-74
2021/04/11 00:36:13;;;;;;;0.80;0.80;;;;;8.90;100700.00;;;;5088241;28;20221;-74
2021/04/11 00:38:40;;;;;;;1.05;0.82;;;;;8.90;100699.00;;;;5087732;28;20206;-74
2021/04/11 00:41:13;;;;;;;1.73;1.10;;;;;8.90;100703.00;;;;5087409;28;20202;-73
2021/04/11 00:43:41;;;;;;;1.42;1.00;;;;;8.90;100707.00;;;;5088075;28;20255;-74
2021/04/11 00:46:24;;;;;;;1.10;0.82;;;;;8.80;100710.00;;;;5087534;28;20602;-74
2021/04/11 00:48:51;;;;;;;1.00;0.80;;;;;8.90;100710.00;;;;5080043;28;20199;-74
2021/04/11 00:51:20;;;;;;;0.65;0.60;;;;;8.90;100718.00;;;;5070428;28;20198;-74
2021/04/11 00:53:47;;;;;;;0.65;0.47;;;;;8.90;100718.00;;;;5088027;28;20584;-74
2021/04/11 00:56:16;;;;;;;0.90;0.63;;;;;8.90;100723.00;;;;5088031;28;20222;-74
2021/04/11 00:58:43;;;;;;;1.00;0.70;;;;;9.00;100720.00;;;;5087386;28;20710;-74
2021/04/11 01:01:10;;;;;;;1.17;0.80;;;;;9.00;100717.00;;;;5085255;28;20198;-74
2021/04/11 01:03:39;;;;;;;1.02;0.90;;;;;9.00;100708.00;;;;5091770;28;20202;-74
2021/04/11 01:06:11;;;;;;;0.98;0.85;;;;;9.00;100705.00;;;;5091251;28;20206;-74
2021/04/11 01:08:39;;;;;;;1.10;0.80;;;;;9.10;100703.00;;;;5090786;28;20195;-74
2021/04/11 01:11:09;;;;;;;1.58;1.15;;;;;9.10;100694.00;;;;5090699;28;20205;-73
2021/04/11 01:13:38;;;;;;;0.98;0.70;;;;;9.10;100696.00;;;;5091241;28;20201;-75
2021/04/11 01:16:06;;;;;;;0.98;0.80;;;;;9.10;100695.00;;;;5090723;28;20218;-74
2021/04/11 01:18:33;;;;;;;1.33;0.98;;;;;9.10;100690.00;;;;5090939;28;20202;-74
2021/04/11 01:21:04;;;;;;;0.90;0.80;;;;;9.10;100692.00;;;;5090341;28;20194;-74
2021/04/11 01:23:43;;;;;;;0.60;0.47;;;;;9.10;100704.00;;;;5090592;28;20183;-75
2021/04/11 01:26:12;;;;;;;1.10;0.60;;;;;9.20;100699.00;;;;5090796;28;20205;-74
2021/04/11 01:28:41;;;;;;;0.43;0.30;;;;;9.20;100701.00;;;;5088356;28;20203;-74
2021/04/11 01:31:09;;;;;;;0.57;0.40;;;;;9.20;100687.00;;;;5089314;28;20190;-74
2021/04/11 01:33:38;;;;;;;0.60;0.45;;;;;9.20;100679.00;;;;5091522;28;20668;-74
2021/04/11 01:36:08;;;;;;;0.93;0.50;;;;;9.20;100684.00;;;;5090244;28;20214;-74
2021/04/11 01:38:38;;;;;;;0.45;0.38;;;;;9.20;100691.00;;;;5091184;28;20202;-74
2021/04/11 01:41:09;;;;;;;0.40;0.30;;;;;9.20;100699.00;;;;5090265;28;20198;-74
2021/04/11 01:43:37;;;;;;;0.65;0.47;;;;;9.20;100685.00;;;;5090211;28;20191;-74
2021/04/11 01:46:06;;;;;;;0.52;0.35;;;;;9.20;100676.00;;;;5090959;28;20206;-74
2021/04/11 01:48:33;;;;;;;0.47;0.40;;;;;9.20;100678.00;;;;5089115;28;20195;-74
2021/04/11 01:51:02;;;;;;;2.05;0.60;;;;;9.20;100689.00;;;;5077305;28;20243;-74
2021/04/11 01:53:30;;;;;;;0.35;0.35;;;;;9.20;100688.00;;;;5089901;28;20241;-73
2021/04/11 01:55:57;;;;;;;0.75;0.45;;;;;9.20;100692.00;;;;5090652;28;20277;-74
2021/04/11 01:58:24;;;;;;;0.88;0.40;;;;;9.30;100698.00;;;;5089675;28;20210;-74
2021/04/11 02:01:05;;;;;;;0.20;0.15;;;;;9.20;100709.00;;;;5089736;28;20194;-75
2021/04/11 02:03:32;;;;;;;1.02;0.60;;;;;9.30;100701.00;;;;5089699;28;20656;-74
2021/04/11 02:06:04;;;;;;;0.57;0.30;;;;;9.20;100692.00;;;;5090119;28;20198;-75
2021/04/11 02:08:32;;;;;;;0.43;0.30;;;;;9.30;100693.00;;;;5090429;28;20202;-74
2021/04/11 02:10:59;;;;;;;0.50;0.20;;;;;9.30;100697.00;;;;5090855;28;20191;-74
2021/04/11 02:13:28;;;;;;;0.43;0.32;;;;;9.30;100692.00;;;;5090154;28;20263;-74
2021/04/11 02:15:58;;;;;;;0.22;0.22;;;;;9.30;100699.00;;;;5089751;28;20706;-74
2021/04/11 02:18:26;;;;;;;0.82;0.38;;;;;9.30;100693.00;;;;5088846;28;20202;-74
2021/04/11 02:20:55;;;;;;;0.30;0.25;;;;;9.30;100678.00;;;;5089668;28;20190;-74
2021/04/11 02:23:23;;;;;;;0.55;0.30;;;;;9.30;100676.00;;;;5089962;28;20198;-74
2021/04/11 02:25:52;;;;;;;1.90;0.22;;;;;9.30;100671.00;;;;5089517;28;20232;-74
2021/04/11 02:28:22;;;;;;;0.85;0.25;;;;;9.30;100684.00;;;;5089060;28;20656;-74
2021/04/11 02:30:52;;;;;;;0.50;0.40;;;;;9.30;100694.00;;;;5070461;28;20252;-74
2021/04/11 02:33:21;;;;;;;0.30;0.20;;;;;9.30;100693.00;;;;5089857;28;20684;-74
2021/04/11 02:35:48;;;;;;;0.70;0.50;;;;;9.30;100688.00;;;;5088638;28;20190;-74
2021/04/11 02:38:16;;;;;;;0.50;0.20;;;;;9.40;100691.00;;;;5089767;28;20205;-74
2021/04/11 02:40:45;;;;;;;0.32;0.20;;;;;9.40;100690.00;;;;5089895;28;20213;-74
2021/04/11 02:43:13;;;;;;;0.15;0.10;;;;;9.40;100683.00;;;;5084605;28;20202;-74
2021/04/11 02:45:42;;;;;;;0.52;0.10;;;;;9.40;100700.00;;;;5089025;28;20202;-74
2021/04/11 02:48:11;;;;;;;0.20;0.10;;;;;9.40;100715.00;;;;5089592;28;20206;-74
2021/04/11 02:50:42;;;;;;;0.30;0.17;;;;;9.40;100722.00;;;;5069691;28;20224;-74
2021/04/11 02:53:13;;;;;;;0.08;0.05;;;;;9.40;100737.00;;;;5068384;28;20305;-74
2021/04/11 02:55:42;;;;;;;0.20;0.10;;;;;9.40;100741.00;;;;5088645;28;20206;-74
2021/04/11 02:58:10;;;;;;;0.20;0.20;;;;;9.40;100732.00;;;;5087601;28;20205;-74
2021/04/11 03:00:43;;;;;;;0.35;0.15;;;;;9.40;100737.00;;;;5088416;28;20197;-74
2021/04/11 03:03:10;;;;;;;0.73;0.20;;;;;9.50;100746.00;;;;5088102;28;20318;-74
2021/04/11 03:05:38;;;;;;;0.30;0.20;;;;;9.50;100750.00;;;;5089184;28;20212;-74
2021/04/11 03:08:07;;;;;;;0.32;0.30;;;;;9.50;100745.00;;;;5088791;28;20209;-74
2021/04/11 03:10:43;;;;;;;0.38;0.20;;;;;9.50;100748.00;;;;5089246;28;20201;-74
2021/04/11 03:13:12;;;;;;;0.60;0.25;;;;;9.50;100745.00;;;;5088285;28;20670;-74
2021/04/11 03:15:40;;;;;;;0.82;0.20;;;;;9.50;100753.00;;;;5088505;28;20194;-75
2021/04/11 03:18:08;;;;;;;0.20;0.10;;;;;9.50;100746.00;;;;5074240;28;20210;-74
2021/04/11 03:20:39;;;;;;;0.80;0.20;;;;;9.50;100730.00;;;;5068029;28;20202;-74
2021/04/11 03:23:07;;;;;;;0.45;0.20;;;;;9.50;100727.00;;;;5088194;28;20194;-74
2021/04/11 03:25:36;;;;;;;1.85;0.20;;;;;9.60;100742.00;;;;5089313;28;20194;-73
2021/04/11 03:28:08;;;;;;;0.50;0.30;;;;;9.60;100732.00;;;;5088712;28;20198;-74
2021/04/11 03:30:39;;;;;;;0.30;0.28;;;;;9.60;100730.00;;;;5088147;28;20202;-75
2021/04/11 03:33:10;;;;;;;0.20;0.20;;;;;9.60;100732.00;;;;5087441;28;20206;-74
2021/04/11 03:35:42;;;;;;;0.47;0.22;;;;;9.60;100733.00;;;;5088096;28;20210;-74
2021/04/11 03:38:11;;;;;;;0.65;0.40;;;;;9.60;100737.00;;;;5088208;28;20190;-74
2021/04/11 03:40:40;;;;;;;0.50;0.20;;;;;9.60;100745.00;;;;5088551;28;20194;-74
2021/04/11 03:43:13;;;;;;;1.80;0.22;;;;;9.60;100750.00;;;;5088335;28;20236;-74
2021/04/11 03:45:40;;;;;;;0.35;0.15;;;;;9.60;100753.00;;;;5068764;28;20280;-74
2021/04/11 03:48:13;;;;;;;0.45;0.20;;;;;9.60;100754.00;;;;5071157;28;20229;-74
2021/04/11 03:50:46;;;;;;;0.17;0.10;;;;;9.60;100763.00;;;;5079188;28;20287;-74
2021/04/11 03:53:17;;;;;;;0.10;0.10;;;;;9.60;100767.00;;;;5081523;28;20219;-74
2021/04/11 03:55:47;;;;;;;1.95;0.17;;;;;9.60;100776.00;;;;5088166;28;20210;-74
2021/04/11 03:58:18;;;;;;;0.20;0.13;;;;;9.60;100758.00;;;;5084121;28;20194;-74
2021/04/11 04:00:49;;;;;;;1.13;0.50;;;;;9.70;100768.00;;;;5067812;28;20667;-74
2021/04/11 04:03:20;;;;;;;0.22;0.10;;;;;9.60;100751.00;;;;5088445;28;20197;-74
2021/04/11 04:05:48;;;;;;;1.63;0.20;;;;;9.60;100767.00;;;;5087448;28;20198;-73
2021/04/11 04:08:15;;;;;;;0.30;0.10;;;;;9.70;100768.00;;;;5088142;28;20659;-74
2021/04/11 04:10:50;;;;;;;0.20;0.10;;;;;9.60;100767.00;;;;5087158;28;20205;-74
2021/04/11 04:13:39;;;;;;;0.15;0.10;;;;;9.60;100769.00;;;;5087460;28;20201;-74
2021/04/11 04:16:15;;;;;;;0.30;0.10;;;;;9.60;100770.00;;;;5087145;28;20230;-75
2021/04/11 04:18:56;;;;;;;0.32;0.28;;;;;9.50;100778.00;;;;5086782;28;20660;-74
2021/04/11 04:21:57;;;;;;;0.60;0.30;;;;;9.50;100773.00;;;;5086937;28;20215;-74
2021/04/11 04:24:34;;;;;;;0.63;0.10;;;;;9.50;100777.00;;;;5060554;28;20198;-74
2021/04/11 04:27:09;;;;;;;0.35;0.20;;;;;9.50;100780.00;;;;5086407;28;20251;-74
2021/04/11 04:29:40;;;;;;;0.10;0.05;;;;;9.50;100771.00;;;;5084364;28;20186;-74
2021/04/11 04:32:26;;;;;;;0.90;0.10;;;;;9.50;100780.00;;;;5085866;28;20202;-74
2021/04/11 04:35:04;;;;;;;0.40;0.10;;;;;9.50;100801.00;;;;5082559;28;20210;-74
2021/04/11 04:37:52;;;;;;;0.38;0.20;;;;;9.50;100815.00;;;;5071322;28;20222;-74
2021/04/11 04:40:33;;;;;;;0.30;0.20;;;;;9.50;100805.00;;;;5075955;28;20206;-74
2021/04/11 04:43:02;;;;;;;1.10;0.40;;;;;9.50;100804.00;;;;5085712;28;20664;-74
2021/04/11 04:45:34;;;;;;;0.50;0.20;;;;;9.50;100798.00;;;;5090420;28;20186;-74
2021/04/11 04:48:09;;;;;;;0.38;0.13;;;;;9.50;100795.00;;;;5091202;28;20248;-73
2021/04/11 04:50:40;;;;;;;0.40;0.20;;;;;9.60;100795.00;;;;5084078;28;20602;-74
2021/04/11 04:53:15;;;;;;;1.40;0.50;;;;;9.60;100811.00;;;;5087753;28;20530;-74
2021/04/11 04:55:47;;;;;;;2.13;0.40;;;;;9.50;100815.00;;;;5091340;28;20231;-74
2021/04/11 04:58:18;;;;;;;0.32;0.20;;;;;9.60;100808.00;;;;5085255;28;20203;-74
2021/04/11 05:00:51;;;;;;;0.75;0.30;;;;;9.60;100815.00;;;;5078611;28;20255;-74
2021/04/11 05:03:21;;;;;;;1.25;0.40;;;;;9.60;100825.00;;;;5091258;28;20186;-74
2021/04/11 05:05:53;;;;;;;0.47;0.32;;;;;9.50;100822.00;;;;5091351;28;20259;-74
2021/04/11 05:08:24;;;;;;;2.15;0.38;;;;;9.50;100819.00;;;;5091642;28;20203;-74
2021/04/11 05:10:58;;;;;;;0.52;0.40;;;;;9.60;100806.00;;;;5089758;28;20613;-74
2021/04/11 05:13:31;;;;;;;0.95;0.57;;;;;9.60;100822.00;;;;5091292;28;20194;-73
2021/04/11 05:16:00;;;;;;;0.20;0.20;;;;;9.60;100819.00;;;;5091015;28;20206;-73
2021/04/11 05:18:32;;;;;;;0.77;0.47;;;;;9.60;100828.00;;;;5091490;28;20267;-73
2021/04/11 05:21:03;;;;;;;0.95;0.25;;;;;9.70;100820.00;;;;5087944;28;20282;-74
2021/04/11 05:23:36;;;;;;;0.88;0.30;;;;;9.70;100830.00;;;;5079426;28;20186;-73
2021/04/11 05:26:09;;;;;;;1.00;0.35;;;;;9.70;100832.00;;;;5070940;28;20687;-73
2021/04/11 05:28:42;;;;;;;0.50;0.22;;;;;9.80;100843.00;;;;5075784;28;20217;-74
2021/04/11 05:31:14;;;;;;;0.52;0.32;;;;;9.80;100850.00;;;;5080686;28;20671;-74
2021/04/11 05:33:42;;;;;;;0.43;0.30;;;;;9.80;100851.00;;;;5079671;28;20202;-74
2021/04/11 05:36:17;;;;;;;1.27;0.30;;;;;9.90;100863.00;;;;5082878;28;20218;-74
2021/04/11 05:38:57;;;;;;;0.50;0.25;;;;;9.80;100867.00;;;;5080344;28;20278;-74
2021/04/11 05:41:30;;;;;;;1.88;0.40;;;;;9.90;100866.00;;;;5070978;28;20198;-73
2021/04/11 05:44:02;;;;;;;0.40;0.20;;;;;10.00;100860.00;;;;5073195;28;20203;-73
2021/04/11 05:46:35;;;;;;;1.88;0.88;;;;;10.00;100874.00;;;;5082206;28;20207;-74
2021/04/11 05:49:06;;;;;;;1.42;0.30;;;;;10.00;100870.00;;;;5085853;28;20610;-74
2021/04/11 05:51:36;;;;;;;0.73;0.40;;;;;10.00;100889.00;;;;5088274;28;20198;-73
2021/04/11 05:54:11;;;;;;;0.98;0.40;;;;;10.00;100905.00;;;;5075424;28;20249;-74
2021/04/11 05:56:41;;;;;;;2.85;0.50;;;;;10.10;100905.00;;;;5075858;28;20209;-74
2021/04/11 05:59:13;;;;;;;0.30;0.20;;;;;10.10;100908.00;;;;5087805;28;20233;-74
2021/04/11 06:01:43;;;;;;;0.65;0.35;;;;;10.10;100901.00;;;;5076930;28;20221;-74
2021/04/11 06:04:13;;;;;;;0.57;0.20;;;;;10.10;100914.00;;;;5079160;28;20206;-73
2021/04/11 06:06:46;;;;;;;0.63;0.28;;;;;10.20;100915.00;;;;5087914;28;20664;-74
2021/04/11 06:09:22;;;;;;;0.32;0.30;;;;;10.20;100919.00;;;;5079962;28;20206;-75
2021/04/11 06:11:56;;;;;;;2.83;0.50;;;;;10.20;100928.00;;;;5086028;28;20209;-75
2021/04/11 06:14:28;;;;;;;0.65;0.45;;;;;10.30;100923.00;;;;5089816;28;20209;-75
2021/04/11 06:16:55;;;;;;;1.20;0.57;;;;;10.30;100917.00;;;;5082071;28;20233;-74
2021/04/11 06:19:23;;;;;;;0.90;0.57;;;;;10.30;100941.00;;;;5085151;28;20249;-74
2021/04/11 06:21:58;;;;;;;1.73;0.40;;;;;10.30;100940.00;;;;5088666;28;20226;-75
2021/04/11 06:24:46;;;;;;;0.50;0.40;;;;;10.30;100942.00;;;;5085644;28;20201;-74
2021/04/11 06:27:27;;;;;;;1.85;0.35;;;;;10.30;100945.00;;;;5085305;28;20194;-74
2021/04/11 06:29:59;;;;;;;0.65;0.50;;;;;10.40;100947.00;;;;5084813;28;20333;-74
2021/04/11 06:32:31;;;;;;;0.50;0.30;;;;;10.40;100944.00;;;;5089666;28;20202;-75
2021/04/11 06:35:02;;;;;;;1.42;0.40;;;;;10.40;100944.00;;;;5083668;28;20206;-73
2021/04/11 06:37:31;;;;;;;1.05;0.80;;;;;10.40;100944.00;;;;5088032;28;20219;-75
2021/04/11 06:40:02;;;;;;;0.30;0.20;;;;;10.40;100947.00;;;;5088517;28;20205;-74
2021/04/11 06:42:53;;;;;;;0.50;0.40;;;;;10.40;100952.00;;;;5075781;28;20210;-74
2021/04/11 06:45:29;;;;;;;0.65;0.40;;;;;10.40;100961.00;;;;5085865;28;20198;-75
2021/04/11 06:48:27;;;;;;;0.35;0.30;;;;;10.40;100954.00;;;;5081480;28;20194;-75
2021/04/11 06:51:24;;;;;;;1.65;0.45;;;;;10.40;100960.00;;;;5084833;28;20230;-74
2021/04/11 06:54:32;;;;;;;0.77;0.28;;;;;10.40;100963.00;;;;5079532;28;20575;-74
2021/04/11 06:57:15;;;;;;;3.03;0.40;;;;;10.50;100966.00;;;;4982899;28;20751;-74
2021/04/11 06:59:55;;;;;;;1.30;0.40;;;;;10.50;100962.00;;;;4973131;28;20205;-75
2021/04/11 07:02:57;;;;;;;1.35;0.38;;;;;10.50;100951.00;;;;5047142;28;20201;-74
2021/04/11 07:05:40;;;;;;;1.65;0.40;;;;;10.50;100960.00;;;;5076185;28;20194;-74
2021/04/11 07:08:41;;;;;;;1.23;0.32;;;;;10.50;100970.00;;;;5085429;28;20210;-75
2021/04/11 07:11:39;;;;;;;1.45;0.30;;;;;10.50;100966.00;;;;5083622;28;20194;-75
2021/04/11 07:14:32;;;;;;;0.38;0.20;;;;;10.50;100960.00;;;;5084871;28;20195;-75
2021/04/11 07:17:12;;;;;;;2.08;0.30;;;;;10.50;100969.00;;;;5087014;28;20238;-75
2021/04/11 07:20:24;;;;;;;0.38;0.30;;;;;10.50;100971.00;;;;5082672;28;20221;-77
2021/04/11 07:23:21;;;;;;;0.43;0.15;;;;;10.50;100972.00;;;;5078847;28;20193;-76
2021/04/11 07:26:08;;;;;;;0.95;0.17;;;;;10.50;100991.00;;;;5083173;28;20194;-76
2021/04/11 07:28:43;;;;;;;0.88;0.60;;;;;10.60;100984.00;;;;5084136;28;20193;-75
2021/04/11 07:31:35;;;;;;;1.50;0.30;;;;;10.60;100991.00;;;;5083576;28;20299;-75
2021/04/11 07:34:14;;;;;;;1.30;0.43;;;;;10.60;100998.00;;;;5083168;28;20217;-75
2021/04/11 07:37:15;;;;;;;0.70;0.30;;;;;10.60;101009.00;;;;5082225;28;20225;-73
2021/04/11 07:39:49;;;;;;;0.55;0.30;;;;;10.70;101014.00;;;;5083786;28;20679;-75
2021/04/11 07:42:43;;;;;;;0.30;0.20;;;;;10.70;101022.00;;;;5082560;28;20690;-74
2021/04/11 07:45:43;;;;;;;0.45;0.20;;;;;10.70;101020.00;;;;5082435;28;21329;-74
2021/04/11 07:48:52;;;;;;;1.95;0.55;;;;;10.70;101024.00;;;;5082067;28;20194;-74
2021/04/11 07:52:07;;;;;;;2.08;0.55;;;;;10.70;101027.00;;;;5081823;28;20198;-74
2021/04/11 07:54:49;;;;;;;2.35;0.20;;;;;10.70;101036.00;;;;5060939;28;20209;-74
2021/04/11 07:57:57;;;;;;;0.32;0.25;;;;;10.70;101042.00;;;;5085237;28;20218;-74
2021/04/11 08:01:14;;;;;;;1.73;0.30;;;;;10.70;101047.00;;;;5059084;28;20224;-74
2021/04/11 08:04:22;;;;;;;2.28;0.52;;;;;10.70;101048.00;;;;5062614;28;20198;-76
2021/04/11 08:07:24;;;;;;;2.10;0.43;;;;;10.80;101045.00;;;;5083436;28;20198;-75
2021/04/11 08:10:00;;;;;;;0.88;0.25;;;;;10.80;101043.00;;;;5084724;28;20204;-75
2021/04/11 08:12:59;;;;;;;2.92;0.30;;;;;10.80;101055.00;;;;5087394;28;20200;-75
2021/04/11 08:15:31;;;;;;;2.92;0.47;;;;;10.90;101057.00;;;;5086407;28;20205;-77
2021/04/11 08:18:12;;;;;;;0.93;0.22;;;;;10.90;101060.00;;;;5083042;28;20218;-77
2021/04/11 08:21:20;;;;;;;2.10;0.45;;;;;10.90;101064.00;;;;5081685;28;20205;-77
2021/04/11 08:24:23;;;;;;;0.70;0.38;;;;;10.90;101069.00;;;;5082258;28;20612;-78
2021/04/11 08:27:21;;;;;;;2.00;0.40;;;;;10.90;101077.00;;;;5085457;28;20232;-77
2021/04/11 08:30:14;;;;;;;0.90;0.30;;;;;10.90;101070.00;;;;5082998;28;20203;-77
2021/04/11 08:33:25;;;;;;;5.38;0.80;;;;;10.90;101075.00;;;;5082790;28;20198;-76
2021/04/11 08:36:24;;;;;;;1.77;0.88;;;;;10.90;101083.00;;;;5003218;28;20200;-74
2021/04/11 08:39:11;;;;;;;2.58;0.52;;;;;11.00;101073.00;;;;5085005;28;20440;-74
2021/04/11 08:42:04;;;;;;;2.45;0.73;;;;;11.00;101084.00;;;;5081276;28;21996;-74
2021/04/11 08:44:45;;;;;;;1.52;0.50;;;;;11.00;101083.00;;;;5084705;28;20194;-74
2021/04/11 08:47:25;;;;;;;2.05;0.63;;;;;11.10;101082.00;;;;5087963;28;20259;-74
2021/04/11 08:49:58;;;;;;;0.45;0.20;;;;;11.10;101091.00;;;;5083412;28;20221;-75
2021/04/11 08:52:38;;;;;;;2.45;0.77;;;;;11.10;101104.00;;;;5083539;28;20246;-75
2021/04/11 08:55:09;;;;;;;0.68;0.52;;;;;11.20;101110.00;;;;5087238;28;20201;-74
2021/04/11 08:57:55;;;;;;;1.13;0.40;;;;;11.10;101117.00;;;;5091379;28;20218;-75
2021/04/11 09:00:26;;;;;;;1.30;0.60;;;;;11.30;101116.00;;;;5085844;28;20202;-75
2021/04/11 09:03:06;;;;;;;1.05;0.50;;;;;11.30;101114.00;;;;5090555;28;20587;-74
2021/04/11 09:05:47;;;;;;;2.15;0.68;;;;;11.40;101123.00;;;;5091020;28;20591;-75
2021/04/11 09:08:22;;;;;;;3.15;0.85;;;;;11.40;101129.00;;;;5086373;28;20202;-74
2021/04/11 09:11:03;;;;;;;3.20;1.13;;;;;11.40;101124.00;;;;5089717;28;20194;-74
2021/04/11 09:13:43;;;;;;;4.13;0.93;;;;;11.50;101132.00;;;;5090559;28;20205;-73
2021/04/11 09:16:17;;;;;;;2.10;0.55;;;;;11.50;101134.00;;;;5088011;28;20206;-73
2021/04/11 09:18:54;;;;;;;2.47;0.65;;;;;11.60;101139.00;;;;5082503;28;20197;-74
2021/04/11 09:21:46;;;;;;;1.23;0.68;;;;;11.60;101138.00;;;;5089271;28;20202;-73
2021/04/11 09:24:18;;;;;;;4.25;1.05;;;;;11.60;101143.00;;;;5081675;28;20194;-74
2021/04/11 09:27:05;;;;;;;3.72;0.80;;;;;11.60;101157.00;;;;5089700;28;20690;-76
2021/04/11 09:29:41;;;;;;;1.75;0.47;;;;;11.70;101155.00;;;;5090964;28;20263;-74
2021/04/11 09:32:35;;;;;;;1.30;0.50;;;;;11.60;101159.00;;;;5089382;28;20202;-75
2021/04/11 09:35:25;;;;;;;2.10;0.40;;;;;11.70;101152.00;;;;5090951;28;20244;-74
2021/04/11 09:38:11;;;;;;;1.27;0.32;;;;;11.60;101167.00;;;;5084505;28;20221;-74
2021/04/11 09:40:59;;;;;;;0.65;0.32;;;;;11.60;101156.00;;;;5090838;28;20656;-74
2021/04/11 09:43:54;;;;;;;1.80;0.30;;;;;11.60;101162.00;;;;5091137;28;20206;-74
2021/04/11 09:46:36;;;;;;;3.03;0.93;;;;;11.60;101163.00;;;;5083223;28;20668;-74
2021/04/11 09:49:28;;;;;;;2.67;0.30;;;;;11.60;101164.00;;;;5078421;28;20704;-74
2021/04/11 09:52:16;;;;;;;1.00;0.30;;;;;11.70;101168.00;;;;5070863;28;20633;-74
2021/04/11 09:54:46;;;;;;;1.42;0.70;;;;;11.80;101167.00;;;;5070662;28;20223;-75
2021/04/11 09:57:32;;;;;;;1.35;0.50;;;;;11.80;101166.00;;;;5072120;28;20222;-75
2021/04/11 10:00:20;;;;;;;0.68;0.32;;;;;11.90;101168.00;;;;5090612;28;20209;-74
2021/04/11 10:03:18;;;;;;;1.35;0.32;;;;;12.00;101169.00;;;;5090476;28;20766;-75
2021/04/11 10:05:54;;;;;;;0.20;0.20;;;;;12.20;101156.00;;;;5091044;28;20243;-74
2021/04/11 10:08:46;;;;;;;0.40;0.10;;;;;12.40;101179.00;;;;5090519;28;20651;-74
2021/04/11 10:11:29;;;;;;;1.00;0.47;;;;;12.40;101174.00;;;;5047019;28;20669;-75
2021/04/11 10:14:09;;;;;;;0.82;0.35;;;;;12.50;101178.00;;;;5090135;28;20194;-74
2021/04/11 10:16:45;;;;;;;1.20;0.20;;;;;12.60;101176.00;;;;5090282;28;20233;-75
2021/04/11 10:19:30;;;;;;;0.30;0.20;;;;;12.60;101189.00;;;;5076989;28;20218;-75
2021/04/11 10:22:28;;;;;;;0.85;0.40;;;;;12.70;101179.00;;;;5077759;28;20190;-74
2021/04/11 10:25:06;;;;;;;1.88;0.50;;;;;12.70;101183.00;;;;5049041;28;20199;-74
2021/04/11 10:27:37;;;;;;;0.60;0.20;;;;;12.80;101181.00;;;;5069632;28;20191;-74
2021/04/11 10:30:08;;;;;;;0.77;0.35;;;;;12.90;101185.00;;;;5070120;28;20187;-75
2021/04/11 10:32:41;;;;;;;0.55;0.20;;;;;12.90;101190.00;;;;5069691;28;20967;-75
2021/04/11 10:35:14;;;;;;;1.17;0.40;;;;;13.00;101198.00;;;;5069708;28;20207;-75
2021/04/11 10:37:45;;;;;;;1.27;0.40;;;;;13.20;101198.00;;;;5072544;28;20265;-75
2021/04/11 10:40:45;;;;;;;1.77;0.60;;;;;13.20;101198.00;;;;5089643;28;20257;-74
2021/04/11 10:43:25;;;;;;;1.58;0.30;;;;;13.30;101211.00;;;;5090219;28;20202;-75
2021/04/11 10:45:58;;;;;;;1.05;0.30;;;;;13.30;101226.00;;;;5090103;28;20210;-74
2021/04/11 10:48:40;;;;;;;2.00;0.30;;;;;13.30;101230.00;;;;5089773;28;20202;-75
2021/04/11 10:51:31;;;;;;;2.75;0.65;;;;;13.20;101223.00;;;;5083444;28;20209;-75
2021/04/11 10:54:32;;;;;;;0.55;0.43;;;;;13.00;101232.00;;;;5068790;28;20218;-74
2021/04/11 10:57:16;;;;;;;0.63;0.20;;;;;12.90;101242.00;;;;5000677;28;20593;-74
2021/04/11 10:59:59;;;;;;;1.25;0.22;;;;;12.80;101236.00;;;;5069427;28;20578;-75
2021/04/11 11:03:06;;;;;;;1.00;0.30;;;;;12.70;101247.00;;;;5069519;28;20202;-75
2021/04/11 11:05:46;;;;;;;0.75;0.38;;;;;12.70;101261.00;;;;5069405;28;20199;-75
2021/04/11 11:08:49;;;;;;;1.05;0.25;;;;;12.60;101261.00;;;;5068898;28;20265;-73
2021/04/11 11:11:44;;;;;;;0.25;0.15;;;;;12.60;101261.00;;;;5068317;28;20245;-74
2021/04/11 11:14:30;;;;;;;0.88;0.30;;;;;12.60;101257.00;;;;5068871;28;20232;-74
2021/04/11 11:17:13;;;;;;;1.20;0.38;;;;;12.60;101258.00;;;;5068741;28;20229;-73
2021/04/11 11:20:03;;;;;;;0.82;0.25;;;;;12.60;101256.00;;;;5069057;28;20218;-75
2021/04/11 11:22:53;;;;;;;0.43;0.20;;;;;12.60;101254.00;;;;5069884;28;20933;-74
2021/04/11 11:25:43;;;;;;;0.57;0.28;;;;;12.80;101257.00;;;;5069073;28;20202;-74
2021/04/11 11:28:51;;;;;;;1.27;0.45;;;;;12.80;101263.00;;;;5068535;28;20210;-74
2021/04/11 11:31:50;;;;;;;0.40;0.20;;;;;12.90;101271.00;;;;5068104;28;20202;-74
2021/04/11 11:34:36;;;;;;;0.52;0.20;;;;;13.00;101267.00;;;;5068172;28;20298;-73
2021/04/11 11:37:19;;;;;;;0.85;0.30;;;;;13.10;101272.00;;;;5067170;28;20225;-74
2021/04/11 11:39:49;;;;;;;0.40;0.30;;;;;13.20;101272.00;;;;5067976;28;20669;-75
2021/04/11 11:42:34;;;;;;;0.60;0.25;;;;;13.20;101267.00;;;;5067603;28;20264;-74
2021/04/11 11:45:09;;;;;;;0.38;0.15;;;;;13.30;101272.00;;;;5068868;28;20584;-75
2021/04/11 11:47:42;;;;;;;0.40;0.20;;;;;13.40;101266.00;;;;5087630;28;20210;-75
2021/04/11 11:50:17;;;;;;;0.70;0.20;;;;;13.50;101271.00;;;;5088625;28;20233;-75
2021/04/11 11:52:49;;;;;;;5.07;0.73;;;;;13.70;101290.00;;;;5074212;28;20779;-74
2021/04/11 11:55:22;;;;;;;0.28;0.20;;;;;13.70;101284.00;;;;5068534;28;20576;-74
2021/04/11 11:57:56;;;;;;;0.38;0.20;;;;;13.80;101288.00;;;;5067526;28;20279;-75
2021/04/11 12:00:27;;;;;;;1.83;0.43;;;;;13.90;101291.00;;;;5068898;28;20193;-75
2021/04/11 12:03:06;;;;;;;0.88;0.20;;;;;14.00;101301.00;;;;5072391;28;20267;-75
2021/04/11 12:05:41;;;;;;;0.35;0.10;;;;;14.00;101304.00;;;;5088999;28;20201;-75
2021/04/11 12:08:18;;;;;;;1.95;0.38;;;;;14.00;101309.00;;;;5087728;28;20208;-74
2021/04/11 12:10:56;;;;;;;0.75;0.25;;;;;14.10;101298.00;;;;5088540;28;20202;-75
2021/04/11 12:13:34;;;;;;;0.63;0.30;;;;;14.10;101294.00;;;;5088414;28;20205;-74
2021/04/11 12:16:10;;;;;;;1.20;0.20;;;;;14.20;101307.00;;;;5088648;28;20579;-75
2021/04/11 12:18:44;;;;;;;0.38;0.10;;;;;14.40;101304.00;;;;5088415;28;20230;-75
2021/04/11 12:21:17;;;;;;;1.80;0.40;;;;;14.50;101313.00;;;;5085431;28;20206;-74
2021/04/11 12:23:53;;;;;;;0.47;0.13;;;;;14.60;101311.00;;;;5068830;28;20202;-75
2021/04/11 12:26:21;;;;;;;0.55;0.47;;;;;14.60;101309.00;;;;5068610;28;20324;-74
2021/04/11 12:28:51;;;;;;;0.68;0.38;;;;;14.60;101308.00;;;;5068226;28;20213;-75
2021/04/11 12:31:29;;;;;;;2.42;0.22;;;;;14.50;101326.00;;;;5068640;28;20191;-74
2021/04/11 12:34:04;;;;;;;0.82;0.10;;;;;14.50;101337.00;;;;5068385;28;20218;-74
2021/04/11 12:36:43;;;;;;;1.33;0.25;;;;;14.40;101339.00;;;;5069648;28;20203;-75
2021/04/11 12:39:18;;;;;;;1.10;0.20;;;;;14.40;101342.00;;;;5087822;28;20198;-74
2021/04/11 12:41:52;;;;;;;0.15;0.10;;;;;14.40;101333.00;;;;5090078;28;20251;-75
2021/04/11 12:44:28;;;;;;;2.10;0.80;;;;;14.40;101344.00;;;;5072116;28;20638;-75
2021/04/11 12:47:05;;;;;;;0.98;0.40;;;;;14.40;101343.00;;;;5069264;28;20214;-75
2021/04/11 12:49:47;;;;;;;0.75;0.40;;;;;14.40;101343.00;;;;5068459;28;20696;-74
2021/04/11 12:52:22;;;;;;;1.40;0.40;;;;;14.50;101347.00;;;;5068107;28;20225;-75
2021/04/11 12:54:54;;;;;;;1.17;0.50;;;;;14.60;101339.00;;;;5083110;28;20204;-75
2021/04/11 12:57:23;;;;;;;1.23;0.20;;;;;14.70;101346.00;;;;5093256;28;20233;-74
2021/04/11 12:59:58;;;;;;;1.33;0.50;;;;;14.80;101356.00;;;;5092708;28;20202;-74
2021/04/11 13:02:36;;;;;;;0.40;0.22;;;;;14.80;101363.00;;;;5092220;28;20190;-74
2021/04/11 13:05:06;;;;;;;1.73;0.73;;;;;14.90;101363.00;;;;5092433;28;20197;-74